sensor_id;sensor_type;location;lat;lon;timestamp;P1;durP1;ratioP1;P2;durP2;ratioP2
11082;SDS011;5595;50.186;8.468;2022-07-23T00:01:58;6.57;;;4.65;;
11082;SDS011;5595;50.186;8.468;2022-07-23T00:04:25;5.72;;;4.30;;
11082;SDS011;5595;50.186;8.468;2022-07-23T00:06:53;5.68;;;5.15;;
11082;SDS011;5595;50.186;8.468;2022-07-23T00:09:20;5.43;;;4.97;;
11082;SDS011;5595;50.186;8.468;2022-07-23T00:11:47;5.05;;;4.55;;
11082;SDS011;5595;50.186;8.468;2022-07-23T00:14:14;4.80;;;4.35;;
11082;SDS011;5595;50.186;8.468;2022-07-23T00:16:41;6.88;;;4.70;;
11082;SDS011;5595;50.186;8.468;2022-07-23T00:19:08;5.05;;;4.50;;
11082;SDS011;5595;50.186;8.468;2022-07-23T00:21:34;5.05;;;4.35;;
11082;SDS011;5595;50.186;8.468;2022-07-23T00:24:03;5.20;;;4.80;;
11082;SDS011;5595;50.186;8.468;2022-07-23T00:26:31;5.25;;;4.75;;
11082;SDS011;5595;50.186;8.468;2022-07-23T00:28:58;6.82;;;4.53;;
11082;SDS011;5595;50.186;8.468;2022-07-23T00:31:25;4.88;;;4.40;;
11082;SDS011;5595;50.186;8.468;2022-07-23T00:33:52;7.10;;;4.53;;
11082;SDS011;5595;50.186;8.468;2022-07-23T00:36:21;5.88;;;4.90;;
11082;SDS011;5595;50.186;8.468;2022-07-23T00:38:48;6.53;;;4.80;;
11082;SDS011;5595;50.186;8.468;2022-07-23T00:41:17;5.20;;;4.72;;
11082;SDS011;5595;50.186;8.468;2022-07-23T00:43:44;7.45;;;5.30;;
11082;SDS011;5595;50.186;8.468;2022-07-23T00:46:18;6.10;;;4.63;;
11082;SDS011;5595;50.186;8.468;2022-07-23T00:48:46;6.45;;;4.68;;
11082;SDS011;5595;50.186;8.468;2022-07-23T00:51:14;6.53;;;4.70;;
11082;SDS011;5595;50.186;8.468;2022-07-23T00:53:42;5.47;;;4.75;;
11082;SDS011;5595;50.186;8.468;2022-07-23T00:56:13;5.05;;;4.53;;
11082;SDS011;5595;50.186;8.468;2022-07-23T00:58:42;5.45;;;4.90;;
11082;SDS011;5595;50.186;8.468;2022-07-23T01:01:09;6.72;;;5.05;;
11082;SDS011;5595;50.186;8.468;2022-07-23T01:03:37;7.75;;;4.93;;
11082;SDS011;5595;50.186;8.468;2022-07-23T01:06:04;6.03;;;4.85;;
11082;SDS011;5595;50.186;8.468;2022-07-23T01:08:31;8.05;;;4.70;;
11082;SDS011;5595;50.186;8.468;2022-07-23T01:10:58;5.38;;;4.88;;
11082;SDS011;5595;50.186;8.468;2022-07-23T01:13:25;5.40;;;4.90;;
11082;SDS011;5595;50.186;8.468;2022-07-23T01:15:54;5.13;;;4.63;;
11082;SDS011;5595;50.186;8.468;2022-07-23T01:18:21;6.60;;;4.70;;
11082;SDS011;5595;50.186;8.468;2022-07-23T01:20:48;6.20;;;5.07;;
11082;SDS011;5595;50.186;8.468;2022-07-23T01:23:16;5.55;;;4.85;;
11082;SDS011;5595;50.186;8.468;2022-07-23T01:25:47;8.75;;;4.90;;
11082;SDS011;5595;50.186;8.468;2022-07-23T01:28:14;5.40;;;4.97;;
11082;SDS011;5595;50.186;8.468;2022-07-23T01:30:42;5.57;;;5.00;;
11082;SDS011;5595;50.186;8.468;2022-07-23T01:33:09;6.55;;;5.15;;
11082;SDS011;5595;50.186;8.468;2022-07-23T01:35:35;5.15;;;4.47;;
11082;SDS011;5595;50.186;8.468;2022-07-23T01:38:02;5.78;;;4.93;;
11082;SDS011;5595;50.186;8.468;2022-07-23T01:40:31;5.70;;;5.03;;
11082;SDS011;5595;50.186;8.468;2022-07-23T01:42:58;7.97;;;5.00;;
11082;SDS011;5595;50.186;8.468;2022-07-23T01:45:25;6.25;;;4.60;;
11082;SDS011;5595;50.186;8.468;2022-07-23T01:47:51;6.00;;;4.93;;
11082;SDS011;5595;50.186;8.468;2022-07-23T01:50:18;6.30;;;4.93;;
11082;SDS011;5595;50.186;8.468;2022-07-23T01:52:46;5.40;;;4.90;;
11082;SDS011;5595;50.186;8.468;2022-07-23T01:55:12;5.53;;;5.03;;
11082;SDS011;5595;50.186;8.468;2022-07-23T01:57:41;6.72;;;5.32;;
11082;SDS011;5595;50.186;8.468;2022-07-23T02:00:08;6.05;;;4.60;;
11082;SDS011;5595;50.186;8.468;2022-07-23T02:02:36;4.85;;;4.55;;
11082;SDS011;5595;50.186;8.468;2022-07-23T02:05:03;6.68;;;5.30;;
11082;SDS011;5595;50.186;8.468;2022-07-23T02:07:30;5.45;;;4.95;;
11082;SDS011;5595;50.186;8.468;2022-07-23T02:09:57;6.18;;;5.28;;
11082;SDS011;5595;50.186;8.468;2022-07-23T02:12:24;5.60;;;5.07;;
11082;SDS011;5595;50.186;8.468;2022-07-23T02:14:52;5.50;;;4.85;;
11082;SDS011;5595;50.186;8.468;2022-07-23T02:17:19;5.13;;;4.63;;
11082;SDS011;5595;50.186;8.468;2022-07-23T02:19:46;5.65;;;5.15;;
11082;SDS011;5595;50.186;8.468;2022-07-23T02:22:13;5.82;;;4.75;;
11082;SDS011;5595;50.186;8.468;2022-07-23T02:24:43;6.38;;;5.13;;
11082;SDS011;5595;50.186;8.468;2022-07-23T02:27:10;5.80;;;5.25;;
11082;SDS011;5595;50.186;8.468;2022-07-23T02:29:37;5.80;;;5.30;;
11082;SDS011;5595;50.186;8.468;2022-07-23T02:32:05;5.63;;;4.60;;
11082;SDS011;5595;50.186;8.468;2022-07-23T02:34:32;6.03;;;5.43;;
11082;SDS011;5595;50.186;8.468;2022-07-23T02:36:59;5.70;;;5.05;;
11082;SDS011;5595;50.186;8.468;2022-07-23T02:39:27;5.93;;;5.32;;
11082;SDS011;5595;50.186;8.468;2022-07-23T02:41:54;5.28;;;4.88;;
11082;SDS011;5595;50.186;8.468;2022-07-23T02:44:21;6.63;;;6.03;;
11082;SDS011;5595;50.186;8.468;2022-07-23T02:46:48;5.63;;;5.13;;
11082;SDS011;5595;50.186;8.468;2022-07-23T02:49:16;6.45;;;5.85;;
11082;SDS011;5595;50.186;8.468;2022-07-23T02:51:43;6.32;;;5.53;;
11082;SDS011;5595;50.186;8.468;2022-07-23T02:54:13;5.95;;;5.30;;
11082;SDS011;5595;50.186;8.468;2022-07-23T02:56:40;6.68;;;6.07;;
11082;SDS011;5595;50.186;8.468;2022-07-23T02:59:06;6.55;;;5.95;;
11082;SDS011;5595;50.186;8.468;2022-07-23T03:01:34;8.18;;;5.38;;
11082;SDS011;5595;50.186;8.468;2022-07-23T03:04:01;5.75;;;5.03;;
11082;SDS011;5595;50.186;8.468;2022-07-23T03:06:30;6.07;;;5.47;;
11082;SDS011;5595;50.186;8.468;2022-07-23T03:08:56;7.28;;;5.70;;
11082;SDS011;5595;50.186;8.468;2022-07-23T03:11:23;11.10;;;5.78;;
11082;SDS011;5595;50.186;8.468;2022-07-23T03:13:53;5.82;;;5.32;;
11082;SDS011;5595;50.186;8.468;2022-07-23T03:16:20;6.10;;;5.40;;
11082;SDS011;5595;50.186;8.468;2022-07-23T03:18:48;6.40;;;5.30;;
11082;SDS011;5595;50.186;8.468;2022-07-23T03:21:15;5.93;;;5.28;;
11082;SDS011;5595;50.186;8.468;2022-07-23T03:23:43;6.82;;;6.15;;
11082;SDS011;5595;50.186;8.468;2022-07-23T03:26:10;7.75;;;5.47;;
11082;SDS011;5595;50.186;8.468;2022-07-23T03:28:37;6.15;;;5.47;;
11082;SDS011;5595;50.186;8.468;2022-07-23T03:31:04;6.18;;;5.57;;
11082;SDS011;5595;50.186;8.468;2022-07-23T03:33:31;8.10;;;5.65;;
11082;SDS011;5595;50.186;8.468;2022-07-23T03:35:58;6.78;;;6.07;;
11082;SDS011;5595;50.186;8.468;2022-07-23T03:38:25;7.30;;;6.60;;
11082;SDS011;5595;50.186;8.468;2022-07-23T03:40:53;5.95;;;5.38;;
11082;SDS011;5595;50.186;8.468;2022-07-23T03:43:20;5.88;;;5.20;;
11082;SDS011;5595;50.186;8.468;2022-07-23T03:45:49;8.13;;;5.95;;
11082;SDS011;5595;50.186;8.468;2022-07-23T03:48:16;6.50;;;5.90;;
11082;SDS011;5595;50.186;8.468;2022-07-23T03:50:43;5.90;;;5.38;;
11082;SDS011;5595;50.186;8.468;2022-07-23T03:53:10;6.03;;;5.40;;
11082;SDS011;5595;50.186;8.468;2022-07-23T03:55:37;7.97;;;5.53;;
11082;SDS011;5595;50.186;8.468;2022-07-23T03:58:05;5.93;;;5.32;;
11082;SDS011;5595;50.186;8.468;2022-07-23T04:00:32;6.18;;;5.65;;
11082;SDS011;5595;50.186;8.468;2022-07-23T04:02:59;7.47;;;5.93;;
11082;SDS011;5595;50.186;8.468;2022-07-23T04:05:26;6.40;;;5.80;;
11082;SDS011;5595;50.186;8.468;2022-07-23T04:07:53;6.63;;;6.03;;
11082;SDS011;5595;50.186;8.468;2022-07-23T04:10:19;6.47;;;5.82;;
11082;SDS011;5595;50.186;8.468;2022-07-23T04:12:46;6.72;;;6.13;;
11082;SDS011;5595;50.186;8.468;2022-07-23T04:15:15;6.68;;;5.82;;
11082;SDS011;5595;50.186;8.468;2022-07-23T04:17:44;6.20;;;5.43;;
11082;SDS011;5595;50.186;8.468;2022-07-23T04:20:12;6.63;;;5.68;;
11082;SDS011;5595;50.186;8.468;2022-07-23T04:22:39;6.90;;;6.07;;
11082;SDS011;5595;50.186;8.468;2022-07-23T04:25:06;7.40;;;5.82;;
11082;SDS011;5595;50.186;8.468;2022-07-23T04:27:33;7.18;;;6.47;;
11082;SDS011;5595;50.186;8.468;2022-07-23T04:30:00;6.63;;;6.03;;
11082;SDS011;5595;50.186;8.468;2022-07-23T04:32:28;6.35;;;5.82;;
11082;SDS011;5595;50.186;8.468;2022-07-23T04:34:55;7.32;;;6.63;;
11082;SDS011;5595;50.186;8.468;2022-07-23T04:37:22;7.35;;;6.47;;
11082;SDS011;5595;50.186;8.468;2022-07-23T04:39:49;6.10;;;5.55;;
11082;SDS011;5595;50.186;8.468;2022-07-23T04:42:16;7.50;;;6.05;;
11082;SDS011;5595;50.186;8.468;2022-07-23T04:44:43;6.43;;;5.65;;
11082;SDS011;5595;50.186;8.468;2022-07-23T04:47:10;6.70;;;5.80;;
11082;SDS011;5595;50.186;8.468;2022-07-23T04:49:38;6.90;;;5.97;;
11082;SDS011;5595;50.186;8.468;2022-07-23T04:52:05;6.57;;;5.75;;
11082;SDS011;5595;50.186;8.468;2022-07-23T04:54:32;6.22;;;5.65;;
11082;SDS011;5595;50.186;8.468;2022-07-23T04:56:59;6.03;;;5.50;;
11082;SDS011;5595;50.186;8.468;2022-07-23T04:59:25;8.05;;;6.20;;
11082;SDS011;5595;50.186;8.468;2022-07-23T05:01:52;6.88;;;6.18;;
11082;SDS011;5595;50.186;8.468;2022-07-23T05:04:19;7.38;;;6.13;;
11082;SDS011;5595;50.186;8.468;2022-07-23T05:06:48;7.47;;;6.18;;
11082;SDS011;5595;50.186;8.468;2022-07-23T05:09:15;5.72;;;5.13;;
11082;SDS011;5595;50.186;8.468;2022-07-23T05:11:42;6.05;;;5.47;;
11082;SDS011;5595;50.186;8.468;2022-07-23T05:14:10;6.32;;;5.50;;
11082;SDS011;5595;50.186;8.468;2022-07-23T05:16:37;6.00;;;5.30;;
11082;SDS011;5595;50.186;8.468;2022-07-23T05:19:04;7.20;;;5.40;;
11082;SDS011;5595;50.186;8.468;2022-07-23T05:21:31;6.28;;;5.68;;
11082;SDS011;5595;50.186;8.468;2022-07-23T05:24:00;7.70;;;6.38;;
11082;SDS011;5595;50.186;8.468;2022-07-23T05:26:27;8.05;;;7.25;;
11082;SDS011;5595;50.186;8.468;2022-07-23T05:28:54;6.82;;;6.15;;
11082;SDS011;5595;50.186;8.468;2022-07-23T05:31:20;8.43;;;6.22;;
11082;SDS011;5595;50.186;8.468;2022-07-23T05:33:47;8.10;;;7.30;;
11082;SDS011;5595;50.186;8.468;2022-07-23T05:36:14;7.60;;;6.82;;
11082;SDS011;5595;50.186;8.468;2022-07-23T05:38:41;8.07;;;6.75;;
11082;SDS011;5595;50.186;8.468;2022-07-23T05:41:09;8.05;;;6.82;;
11082;SDS011;5595;50.186;8.468;2022-07-23T05:43:36;7.88;;;7.07;;
11082;SDS011;5595;50.186;8.468;2022-07-23T05:46:03;10.02;;;7.40;;
11082;SDS011;5595;50.186;8.468;2022-07-23T05:48:30;8.38;;;6.85;;
11082;SDS011;5595;50.186;8.468;2022-07-23T05:50:57;8.15;;;7.28;;
11082;SDS011;5595;50.186;8.468;2022-07-23T05:53:25;8.35;;;6.38;;
11082;SDS011;5595;50.186;8.468;2022-07-23T05:55:52;6.55;;;5.95;;
11082;SDS011;5595;50.186;8.468;2022-07-23T05:58:20;7.40;;;6.22;;
11082;SDS011;5595;50.186;8.468;2022-07-23T06:00:47;7.35;;;6.43;;
11082;SDS011;5595;50.186;8.468;2022-07-23T06:03:14;6.18;;;5.50;;
11082;SDS011;5595;50.186;8.468;2022-07-23T06:05:41;6.85;;;6.10;;
11082;SDS011;5595;50.186;8.468;2022-07-23T06:08:08;6.82;;;6.05;;
11082;SDS011;5595;50.186;8.468;2022-07-23T06:10:35;6.50;;;5.90;;
11082;SDS011;5595;50.186;8.468;2022-07-23T06:13:02;6.40;;;5.40;;
11082;SDS011;5595;50.186;8.468;2022-07-23T06:15:30;6.93;;;6.22;;
11082;SDS011;5595;50.186;8.468;2022-07-23T06:17:59;6.43;;;5.53;;
11082;SDS011;5595;50.186;8.468;2022-07-23T06:20:26;6.57;;;5.97;;
11082;SDS011;5595;50.186;8.468;2022-07-23T06:22:53;4.68;;;4.28;;
11082;SDS011;5595;50.186;8.468;2022-07-23T06:25:20;5.65;;;5.15;;
11082;SDS011;5595;50.186;8.468;2022-07-23T06:27:47;7.80;;;6.05;;
11082;SDS011;5595;50.186;8.468;2022-07-23T06:30:14;5.32;;;4.78;;
11082;SDS011;5595;50.186;8.468;2022-07-23T06:32:43;6.00;;;5.50;;
11082;SDS011;5595;50.186;8.468;2022-07-23T06:35:10;5.85;;;4.82;;
11082;SDS011;5595;50.186;8.468;2022-07-23T06:37:37;6.05;;;5.38;;
11082;SDS011;5595;50.186;8.468;2022-07-23T06:40:05;6.85;;;5.68;;
11082;SDS011;5595;50.186;8.468;2022-07-23T06:42:32;5.53;;;4.78;;
11082;SDS011;5595;50.186;8.468;2022-07-23T06:45:02;5.65;;;4.75;;
11082;SDS011;5595;50.186;8.468;2022-07-23T06:47:29;6.82;;;5.90;;
11082;SDS011;5595;50.186;8.468;2022-07-23T06:49:57;8.50;;;6.13;;
11082;SDS011;5595;50.186;8.468;2022-07-23T06:52:24;6.32;;;5.72;;
11082;SDS011;5595;50.186;8.468;2022-07-23T06:54:52;5.85;;;5.30;;
11082;SDS011;5595;50.186;8.468;2022-07-23T06:57:19;6.22;;;5.63;;
11082;SDS011;5595;50.186;8.468;2022-07-23T06:59:46;6.50;;;5.90;;
11082;SDS011;5595;50.186;8.468;2022-07-23T07:02:12;6.38;;;5.88;;
11082;SDS011;5595;50.186;8.468;2022-07-23T07:04:39;6.72;;;5.93;;
11082;SDS011;5595;50.186;8.468;2022-07-23T07:07:08;9.65;;;5.85;;
11082;SDS011;5595;50.186;8.468;2022-07-23T07:09:35;6.25;;;5.75;;
11082;SDS011;5595;50.186;8.468;2022-07-23T07:12:03;6.93;;;6.07;;
11082;SDS011;5595;50.186;8.468;2022-07-23T07:14:30;6.45;;;5.78;;
11082;SDS011;5595;50.186;8.468;2022-07-23T07:16:57;6.32;;;5.45;;
11082;SDS011;5595;50.186;8.468;2022-07-23T07:19:24;6.50;;;5.90;;
11082;SDS011;5595;50.186;8.468;2022-07-23T07:21:51;5.22;;;4.72;;
11082;SDS011;5595;50.186;8.468;2022-07-23T07:24:22;6.22;;;5.72;;
11082;SDS011;5595;50.186;8.468;2022-07-23T07:26:50;5.75;;;5.25;;
11082;SDS011;5595;50.186;8.468;2022-07-23T07:29:17;5.93;;;5.32;;
11082;SDS011;5595;50.186;8.468;2022-07-23T07:31:44;6.13;;;5.63;;
11082;SDS011;5595;50.186;8.468;2022-07-23T07:34:11;6.22;;;5.53;;
11082;SDS011;5595;50.186;8.468;2022-07-23T07:36:38;6.88;;;5.53;;
11082;SDS011;5595;50.186;8.468;2022-07-23T07:39:05;6.30;;;5.70;;
11082;SDS011;5595;50.186;8.468;2022-07-23T07:41:33;6.65;;;6.03;;
11082;SDS011;5595;50.186;8.468;2022-07-23T07:44:02;5.90;;;5.40;;
11082;SDS011;5595;50.186;8.468;2022-07-23T07:46:29;6.38;;;4.70;;
11082;SDS011;5595;50.186;8.468;2022-07-23T07:48:56;6.13;;;5.60;;
11082;SDS011;5595;50.186;8.468;2022-07-23T07:51:25;5.50;;;5.00;;
11082;SDS011;5595;50.186;8.468;2022-07-23T07:53:53;6.18;;;5.60;;
11082;SDS011;5595;50.186;8.468;2022-07-23T07:56:22;5.88;;;5.38;;
11082;SDS011;5595;50.186;8.468;2022-07-23T07:58:53;5.75;;;5.10;;
11082;SDS011;5595;50.186;8.468;2022-07-23T08:01:20;7.00;;;5.50;;
11082;SDS011;5595;50.186;8.468;2022-07-23T08:03:47;6.70;;;5.93;;
11082;SDS011;5595;50.186;8.468;2022-07-23T08:06:14;6.50;;;5.22;;
11082;SDS011;5595;50.186;8.468;2022-07-23T08:08:41;6.63;;;5.60;;
11082;SDS011;5595;50.186;8.468;2022-07-23T08:11:09;6.43;;;5.82;;
11082;SDS011;5595;50.186;8.468;2022-07-23T08:13:36;7.35;;;5.82;;
11082;SDS011;5595;50.186;8.468;2022-07-23T08:16:05;6.28;;;5.68;;
11082;SDS011;5595;50.186;8.468;2022-07-23T08:18:32;5.55;;;5.03;;
11082;SDS011;5595;50.186;8.468;2022-07-23T08:20:59;5.45;;;4.95;;
11082;SDS011;5595;50.186;8.468;2022-07-23T08:23:26;7.20;;;5.30;;
11082;SDS011;5595;50.186;8.468;2022-07-23T08:25:53;6.20;;;5.60;;
11082;SDS011;5595;50.186;8.468;2022-07-23T08:28:21;5.85;;;5.32;;
11082;SDS011;5595;50.186;8.468;2022-07-23T08:30:49;5.28;;;4.78;;
11082;SDS011;5595;50.186;8.468;2022-07-23T08:33:17;5.10;;;4.65;;
11082;SDS011;5595;50.186;8.468;2022-07-23T08:35:49;4.68;;;4.28;;
11082;SDS011;5595;50.186;8.468;2022-07-23T08:38:18;6.53;;;5.93;;
11082;SDS011;5595;50.186;8.468;2022-07-23T08:40:46;10.07;;;5.78;;
11082;SDS011;5595;50.186;8.468;2022-07-23T08:43:16;5.88;;;5.25;;
11082;SDS011;5595;50.186;8.468;2022-07-23T08:45:45;5.25;;;4.75;;
11082;SDS011;5595;50.186;8.468;2022-07-23T08:48:14;4.72;;;4.25;;
11082;SDS011;5595;50.186;8.468;2022-07-23T08:50:44;4.82;;;4.35;;
11082;SDS011;5595;50.186;8.468;2022-07-23T08:53:12;5.60;;;4.60;;
11082;SDS011;5595;50.186;8.468;2022-07-23T08:55:42;4.90;;;4.50;;
11082;SDS011;5595;50.186;8.468;2022-07-23T08:58:10;4.78;;;4.30;;
11082;SDS011;5595;50.186;8.468;2022-07-23T09:00:37;7.65;;;4.93;;
11082;SDS011;5595;50.186;8.468;2022-07-23T09:03:04;5.15;;;4.75;;
11082;SDS011;5595;50.186;8.468;2022-07-23T09:05:30;4.95;;;4.55;;
11082;SDS011;5595;50.186;8.468;2022-07-23T09:08:06;4.78;;;4.38;;
11082;SDS011;5595;50.186;8.468;2022-07-23T09:10:44;4.40;;;4.00;;
11082;SDS011;5595;50.186;8.468;2022-07-23T09:15:59;4.03;;;3.60;;
11082;SDS011;5595;50.186;8.468;2022-07-23T09:18:31;4.38;;;3.78;;
11082;SDS011;5595;50.186;8.468;2022-07-23T09:23:54;4.25;;;3.42;;
11082;SDS011;5595;50.186;8.468;2022-07-23T09:26:25;5.22;;;3.92;;
11082;SDS011;5595;50.186;8.468;2022-07-23T09:28:58;3.72;;;3.38;;
11082;SDS011;5595;50.186;8.468;2022-07-23T09:31:30;4.20;;;3.90;;
11082;SDS011;5595;50.186;8.468;2022-07-23T09:34:06;5.00;;;3.97;;
11082;SDS011;5595;50.186;8.468;2022-07-23T09:36:35;4.00;;;3.55;;
11082;SDS011;5595;50.186;8.468;2022-07-23T09:39:03;4.38;;;3.97;;
11082;SDS011;5595;50.186;8.468;2022-07-23T09:41:34;4.68;;;4.10;;
11082;SDS011;5595;50.186;8.468;2022-07-23T09:44:07;5.43;;;4.82;;
11082;SDS011;5595;50.186;8.468;2022-07-23T09:46:35;6.50;;;5.88;;
11082;SDS011;5595;50.186;8.468;2022-07-23T09:49:10;4.90;;;3.78;;
11082;SDS011;5595;50.186;8.468;2022-07-23T09:51:45;4.10;;;3.80;;
11082;SDS011;5595;50.186;8.468;2022-07-23T09:54:23;4.07;;;3.78;;
11082;SDS011;5595;50.186;8.468;2022-07-23T09:56:59;4.03;;;3.63;;
11082;SDS011;5595;50.186;8.468;2022-07-23T09:59:28;3.92;;;3.60;;
11082;SDS011;5595;50.186;8.468;2022-07-23T10:01:58;5.40;;;3.80;;
11082;SDS011;5595;50.186;8.468;2022-07-23T10:04:30;4.00;;;3.70;;
11082;SDS011;5595;50.186;8.468;2022-07-23T10:06:58;6.30;;;3.75;;
11082;SDS011;5595;50.186;8.468;2022-07-23T10:09:28;3.83;;;3.53;;
11082;SDS011;5595;50.186;8.468;2022-07-23T10:11:57;4.30;;;3.08;;
11082;SDS011;5595;50.186;8.468;2022-07-23T10:14:30;3.63;;;3.33;;
11082;SDS011;5595;50.186;8.468;2022-07-23T10:17:01;3.30;;;3.00;;
11082;SDS011;5595;50.186;8.468;2022-07-23T10:19:29;5.03;;;3.72;;
11082;SDS011;5595;50.186;8.468;2022-07-23T10:21:57;3.67;;;3.38;;
11082;SDS011;5595;50.186;8.468;2022-07-23T10:24:47;7.35;;;3.40;;
11082;SDS011;5595;50.186;8.468;2022-07-23T10:27:38;3.83;;;3.53;;
11082;SDS011;5595;50.186;8.468;2022-07-23T10:30:31;3.90;;;3.60;;
11082;SDS011;5595;50.186;8.468;2022-07-23T10:33:17;5.75;;;3.60;;
11082;SDS011;5595;50.186;8.468;2022-07-23T10:35:56;5.28;;;4.00;;
11082;SDS011;5595;50.186;8.468;2022-07-23T10:38:29;4.20;;;3.80;;
11082;SDS011;5595;50.186;8.468;2022-07-23T10:41:03;3.78;;;3.50;;
11082;SDS011;5595;50.186;8.468;2022-07-23T10:43:32;4.45;;;3.75;;
11082;SDS011;5595;50.186;8.468;2022-07-23T10:46:21;4.10;;;3.72;;
11082;SDS011;5595;50.186;8.468;2022-07-23T10:58:01;4.20;;;3.80;;
11082;SDS011;5595;50.186;8.468;2022-07-23T11:00:28;4.53;;;3.70;;
11082;SDS011;5595;50.186;8.468;2022-07-23T11:02:56;5.47;;;4.20;;
11082;SDS011;5595;50.186;8.468;2022-07-23T11:05:25;4.07;;;3.67;;
11082;SDS011;5595;50.186;8.468;2022-07-23T11:08:17;4.25;;;3.85;;
11082;SDS011;5595;50.186;8.468;2022-07-23T11:10:46;3.70;;;3.40;;
11082;SDS011;5595;50.186;8.468;2022-07-23T11:13:35;4.25;;;3.70;;
11082;SDS011;5595;50.186;8.468;2022-07-23T11:16:14;4.43;;;3.78;;
11082;SDS011;5595;50.186;8.468;2022-07-23T11:18:56;3.97;;;3.67;;
11082;SDS011;5595;50.186;8.468;2022-07-23T11:21:44;3.63;;;3.40;;
11082;SDS011;5595;50.186;8.468;2022-07-23T11:24:22;4.40;;;4.03;;
11082;SDS011;5595;50.186;8.468;2022-07-23T11:26:57;4.45;;;3.80;;
11082;SDS011;5595;50.186;8.468;2022-07-23T11:29:42;5.05;;;3.75;;
11082;SDS011;5595;50.186;8.468;2022-07-23T11:32:24;5.03;;;3.63;;
11082;SDS011;5595;50.186;8.468;2022-07-23T11:35:00;5.45;;;4.10;;
11082;SDS011;5595;50.186;8.468;2022-07-23T11:37:29;4.30;;;3.88;;
11082;SDS011;5595;50.186;8.468;2022-07-23T11:40:05;4.47;;;4.00;;
11082;SDS011;5595;50.186;8.468;2022-07-23T11:42:35;4.68;;;3.90;;
11082;SDS011;5595;50.186;8.468;2022-07-23T11:45:06;5.15;;;3.80;;
11082;SDS011;5595;50.186;8.468;2022-07-23T11:47:34;4.43;;;4.03;;
11082;SDS011;5595;50.186;8.468;2022-07-23T11:50:02;4.80;;;4.32;;
11082;SDS011;5595;50.186;8.468;2022-07-23T11:52:31;6.75;;;4.18;;
11082;SDS011;5595;50.186;8.468;2022-07-23T11:54:59;4.90;;;4.40;;
11082;SDS011;5595;50.186;8.468;2022-07-23T11:57:28;3.95;;;3.58;;
11082;SDS011;5595;50.186;8.468;2022-07-23T11:59:57;4.55;;;4.15;;
11082;SDS011;5595;50.186;8.468;2022-07-23T12:02:29;4.47;;;4.07;;
11082;SDS011;5595;50.186;8.468;2022-07-23T12:04:56;4.40;;;4.03;;
11082;SDS011;5595;50.186;8.468;2022-07-23T12:07:27;4.50;;;4.10;;
11082;SDS011;5595;50.186;8.468;2022-07-23T12:09:56;4.70;;;4.15;;
11082;SDS011;5595;50.186;8.468;2022-07-23T12:12:24;5.60;;;4.13;;
11082;SDS011;5595;50.186;8.468;2022-07-23T12:14:51;4.65;;;4.05;;
11082;SDS011;5595;50.186;8.468;2022-07-23T12:17:21;4.43;;;4.03;;
11082;SDS011;5595;50.186;8.468;2022-07-23T12:19:58;6.05;;;4.20;;
11082;SDS011;5595;50.186;8.468;2022-07-23T12:22:33;4.50;;;3.90;;
11082;SDS011;5595;50.186;8.468;2022-07-23T12:25:02;4.30;;;3.80;;
11082;SDS011;5595;50.186;8.468;2022-07-23T12:27:31;5.68;;;4.10;;
11082;SDS011;5595;50.186;8.468;2022-07-23T12:29:58;4.95;;;4.40;;
11082;SDS011;5595;50.186;8.468;2022-07-23T12:32:42;4.15;;;3.85;;
11082;SDS011;5595;50.186;8.468;2022-07-23T12:35:11;6.25;;;4.47;;
11082;SDS011;5595;50.186;8.468;2022-07-23T12:37:39;6.03;;;4.68;;
11082;SDS011;5595;50.186;8.468;2022-07-23T12:40:24;5.82;;;4.25;;
11082;SDS011;5595;50.186;8.468;2022-07-23T12:42:53;4.38;;;3.97;;
11082;SDS011;5595;50.186;8.468;2022-07-23T12:45:21;7.35;;;3.92;;
11082;SDS011;5595;50.186;8.468;2022-07-23T12:47:57;6.25;;;3.92;;
11082;SDS011;5595;50.186;8.468;2022-07-23T12:53:24;5.25;;;4.32;;
11082;SDS011;5595;50.186;8.468;2022-07-23T12:55:57;6.32;;;4.75;;
11082;SDS011;5595;50.186;8.468;2022-07-23T12:58:26;5.55;;;4.63;;
11082;SDS011;5595;50.186;8.468;2022-07-23T13:01:05;4.78;;;4.28;;
11082;SDS011;5595;50.186;8.468;2022-07-23T13:03:34;4.15;;;3.72;;
11082;SDS011;5595;50.186;8.468;2022-07-23T13:06:05;4.85;;;4.40;;
11082;SDS011;5595;50.186;8.468;2022-07-23T13:08:34;5.25;;;4.75;;
11082;SDS011;5595;50.186;8.468;2022-07-23T13:11:03;4.70;;;4.30;;
11082;SDS011;5595;50.186;8.468;2022-07-23T13:13:34;4.60;;;4.20;;
11082;SDS011;5595;50.186;8.468;2022-07-23T13:16:04;4.03;;;3.63;;
11082;SDS011;5595;50.186;8.468;2022-07-23T13:18:34;6.55;;;4.47;;
11082;SDS011;5595;50.186;8.468;2022-07-23T13:21:01;4.60;;;4.20;;
11082;SDS011;5595;50.186;8.468;2022-07-23T13:23:30;5.05;;;4.53;;
11082;SDS011;5595;50.186;8.468;2022-07-23T13:25:57;4.78;;;4.07;;
11082;SDS011;5595;50.186;8.468;2022-07-23T13:28:25;5.78;;;4.20;;
11082;SDS011;5595;50.186;8.468;2022-07-23T13:30:53;4.90;;;3.92;;
11082;SDS011;5595;50.186;8.468;2022-07-23T13:33:22;4.20;;;3.80;;
11082;SDS011;5595;50.186;8.468;2022-07-23T13:35:50;4.22;;;3.83;;
11082;SDS011;5595;50.186;8.468;2022-07-23T13:38:18;5.88;;;4.07;;
11082;SDS011;5595;50.186;8.468;2022-07-23T13:40:48;4.57;;;4.07;;
11082;SDS011;5595;50.186;8.468;2022-07-23T13:43:18;5.55;;;5.05;;
11082;SDS011;5595;50.186;8.468;2022-07-23T13:45:46;5.20;;;4.25;;
11082;SDS011;5595;50.186;8.468;2022-07-23T13:48:14;4.72;;;4.32;;
11082;SDS011;5595;50.186;8.468;2022-07-23T13:50:42;4.63;;;4.22;;
11082;SDS011;5595;50.186;8.468;2022-07-23T13:53:15;4.40;;;3.95;;
11082;SDS011;5595;50.186;8.468;2022-07-23T13:55:44;5.18;;;4.43;;
11082;SDS011;5595;50.186;8.468;2022-07-23T13:58:13;5.72;;;4.43;;
11082;SDS011;5595;50.186;8.468;2022-07-23T14:00:41;5.05;;;4.20;;
11082;SDS011;5595;50.186;8.468;2022-07-23T14:03:10;4.93;;;4.53;;
11082;SDS011;5595;50.186;8.468;2022-07-23T14:05:40;5.20;;;4.10;;
11082;SDS011;5595;50.186;8.468;2022-07-23T14:08:07;6.35;;;4.68;;
11082;SDS011;5595;50.186;8.468;2022-07-23T14:10:35;4.50;;;4.10;;
11082;SDS011;5595;50.186;8.468;2022-07-23T14:13:02;4.47;;;4.00;;
11082;SDS011;5595;50.186;8.468;2022-07-23T14:15:31;5.90;;;4.20;;
11082;SDS011;5595;50.186;8.468;2022-07-23T14:17:58;4.68;;;4.28;;
11082;SDS011;5595;50.186;8.468;2022-07-23T14:20:25;4.25;;;3.42;;
11082;SDS011;5595;50.186;8.468;2022-07-23T14:22:53;4.18;;;3.83;;
11082;SDS011;5595;50.186;8.468;2022-07-23T14:25:21;4.00;;;3.70;;
11082;SDS011;5595;50.186;8.468;2022-07-23T14:27:54;4.22;;;3.85;;
11082;SDS011;5595;50.186;8.468;2022-07-23T14:30:21;3.50;;;3.20;;
11082;SDS011;5595;50.186;8.468;2022-07-23T14:32:50;4.18;;;3.70;;
11082;SDS011;5595;50.186;8.468;2022-07-23T14:35:18;4.18;;;3.42;;
11082;SDS011;5595;50.186;8.468;2022-07-23T14:37:45;4.00;;;3.30;;
11082;SDS011;5595;50.186;8.468;2022-07-23T14:40:12;4.60;;;3.58;;
11082;SDS011;5595;50.186;8.468;2022-07-23T14:42:39;4.45;;;3.17;;
11082;SDS011;5595;50.186;8.468;2022-07-23T14:45:06;3.95;;;3.28;;
11082;SDS011;5595;50.186;8.468;2022-07-23T14:47:33;5.63;;;3.40;;
11082;SDS011;5595;50.186;8.468;2022-07-23T14:50:02;3.38;;;3.17;;
11082;SDS011;5595;50.186;8.468;2022-07-23T14:52:30;3.15;;;2.92;;
11082;SDS011;5595;50.186;8.468;2022-07-23T14:57:38;4.13;;;2.97;;
11082;SDS011;5595;50.186;8.468;2022-07-23T15:00:06;3.65;;;3.35;;
11082;SDS011;5595;50.186;8.468;2022-07-23T15:02:35;3.95;;;3.63;;
11082;SDS011;5595;50.186;8.468;2022-07-23T15:05:06;3.28;;;2.97;;
11082;SDS011;5595;50.186;8.468;2022-07-23T15:07:36;4.10;;;2.90;;
11082;SDS011;5595;50.186;8.468;2022-07-23T15:10:03;4.20;;;2.92;;
11082;SDS011;5595;50.186;8.468;2022-07-23T15:12:31;3.13;;;2.78;;
11082;SDS011;5595;50.186;8.468;2022-07-23T15:14:58;3.15;;;2.95;;
11082;SDS011;5595;50.186;8.468;2022-07-23T15:17:25;2.90;;;2.70;;
11082;SDS011;5595;50.186;8.468;2022-07-23T15:19:52;3.95;;;3.40;;
11082;SDS011;5595;50.186;8.468;2022-07-23T15:22:21;2.97;;;2.78;;
11082;SDS011;5595;50.186;8.468;2022-07-23T15:24:48;3.95;;;3.35;;
11082;SDS011;5595;50.186;8.468;2022-07-23T15:27:15;3.17;;;2.95;;
11082;SDS011;5595;50.186;8.468;2022-07-23T15:29:43;3.38;;;3.08;;
11082;SDS011;5595;50.186;8.468;2022-07-23T15:32:10;3.33;;;2.97;;